Time;durP1;ratioP1;P1;durP2;ratioP2;P2;SDS_P1;SDS_P2;PMS_P1;PMS_P2;Temp;Humidity;BMP_temperature;BMP_pressure;BME280_temperature;BME280_humidity;BME280_pressure;Samples;Min_cycle;Max_cycle;Signal;HPM_P1;HPM_P2
2023/12/10 00:02:19;;;;;;;;;;;7.80;99.90;;;;;;5104633;27;19923;-77
2023/12/10 00:04:45;;;;;;;;;;;7.80;99.90;;;;;;5101441;27;20009;-77
2023/12/10 00:07:11;;;;;;;;;;;7.80;99.90;;;;;;5105316;27;20081;-77
2023/12/10 00:09:37;;;;;;;;;;;7.70;99.90;;;;;;5103395;27;19938;-77
2023/12/10 00:12:02;;;;;;;;;;;7.70;99.90;;;;;;5096150;27;19923;-76
2023/12/10 00:14:28;;;;;;;;;;;7.60;99.90;;;;;;5098482;27;19935;-76
2023/12/10 00:16:54;;;;;;;;;;;7.70;99.90;;;;;;5110062;27;19931;-77
2023/12/10 00:19:19;;;;;;;;;;;7.50;99.90;;;;;;5115662;27;19931;-76
2023/12/10 00:21:46;;;;;;;;;;;7.50;99.90;;;;;;5116964;27;19931;-76
2023/12/10 00:24:11;;;;;;;;;;;7.60;99.90;;;;;;5107414;27;19961;-76
2023/12/10 00:26:37;;;;;;;;;;;7.40;99.90;;;;;;5114198;27;20019;-76
2023/12/10 00:29:03;;;;;;;;;;;7.40;99.90;;;;;;5112340;27;19930;-76
2023/12/10 00:31:28;;;;;;;;;;;7.30;99.90;;;;;;5108258;27;20724;-76
2023/12/10 00:33:54;;;;;;;;;;;7.30;99.90;;;;;;5094821;27;19979;-76
2023/12/10 00:36:20;;;;;;;;;;;7.30;99.90;;;;;;5097204;27;19927;-76
2023/12/10 00:38:45;;;;;;;;;;;6.00;99.90;;;;;;5099772;27;20418;-76
2023/12/10 00:41:11;;;;;;;;;;;7.30;99.90;;;;;;5111032;27;20001;-77
2023/12/10 00:43:40;;;;;;;;;;;7.30;99.90;;;;;;5109219;27;20391;-77
2023/12/10 00:46:06;;;;;;;;;;;7.40;99.90;;;;;;5098613;27;19923;-77
2023/12/10 00:48:33;;;;;;;;;;;7.30;99.90;;;;;;5112209;27;19927;-77
2023/12/10 00:50:59;;;;;;;;;;;7.30;99.90;;;;;;5115803;27;19927;-77
2023/12/10 00:53:25;;;;;;;;;;;7.30;99.90;;;;;;5097357;27;19934;-77
2023/12/10 00:55:51;;;;;;;;;;;7.20;99.90;;;;;;5106300;27;20033;-76
2023/12/10 00:58:17;;;;;;;;;;;7.20;99.90;;;;;;5098199;27;19927;-76
2023/12/10 01:00:43;;;;;;;;;;;7.20;99.90;;;;;;5106741;27;19928;-76
2023/12/10 01:03:08;;;;;;;;;;;7.20;99.90;;;;;;5106059;27;20001;-77
2023/12/10 01:05:34;;;;;;;;;;;7.20;99.90;;;;;;5099871;27;19931;-77
2023/12/10 01:08:00;;;;;;;;;;;7.20;99.90;;;;;;5099993;27;20331;-77
2023/12/10 01:10:26;;;;;;;;;;;7.10;99.90;;;;;;5107695;27;19927;-77
2023/12/10 01:12:52;;;;;;;;;;;7.10;99.90;;;;;;5096058;27;19934;-77
2023/12/10 01:15:29;;;;;;;;;;;7.10;99.90;;;;;;5106020;27;19938;-77
2023/12/10 01:18:01;;;;;;;;;;;7.00;99.90;;;;;;5112726;27;19927;-77
2023/12/10 01:20:33;;;;;;;;;;;7.10;99.90;;;;;;5095353;27;20289;-77
2023/12/10 01:22:59;;;;;;;;;;;7.10;99.90;;;;;;5107042;27;19935;-77
2023/12/10 01:25:25;;;;;;;;;;;7.10;99.90;;;;;;5111920;27;20006;-78
2023/12/10 01:27:52;;;;;;;;;;;7.10;99.90;;;;;;5095481;27;19973;-77
2023/12/10 01:30:18;;;;;;;;;;;7.10;99.90;;;;;;5127561;27;19927;-77
2023/12/10 01:32:43;;;;;;;;;;;7.10;99.90;;;;;;5094242;27;19923;-76
2023/12/10 01:35:10;;;;;;;;;;;7.10;99.90;;;;;;5070317;27;19927;-78
2023/12/10 01:37:37;;;;;;;;;;;7.20;99.90;;;;;;5075063;27;19919;-77
2023/12/10 01:40:05;;;;;;;;;;;7.30;99.90;;;;;;5113814;27;19927;-78
2023/12/10 01:42:33;;;;;;;;;;;7.30;99.90;;;;;;5078774;27;19931;-76
2023/12/10 01:44:59;;;;;;;;;;;7.30;99.90;;;;;;5106236;27;20033;-77
2023/12/10 01:47:24;;;;;;;;;;;7.30;99.90;;;;;;5109748;27;19923;-78
2023/12/10 01:49:50;;;;;;;;;;;7.30;99.90;;;;;;5126684;27;19923;-77
2023/12/10 01:52:16;;;;;;;;;;;7.30;99.90;;;;;;5110108;27;20279;-77
2023/12/10 01:54:41;;;;;;;;;;;7.30;99.90;;;;;;5108091;27;19928;-78
2023/12/10 01:57:08;;;;;;;;;;;7.20;99.90;;;;;;5107407;27;19927;-77
2023/12/10 01:59:34;;;;;;;;;;;7.20;99.90;;;;;;5084121;27;19929;-77
2023/12/10 02:02:00;;;;;;;;;;;7.20;99.90;;;;;;5108722;27;20480;-78
2023/12/10 02:04:26;;;;;;;;;;;7.20;99.90;;;;;;5099487;27;19979;-78
2023/12/10 02:06:52;;;;;;;;;;;7.20;99.90;;;;;;5080813;27;19927;-78
2023/12/10 02:09:18;;;;;;;;;;;7.20;99.90;;;;;;5108546;27;19975;-78
2023/12/10 02:11:44;;;;;;;;;;;7.10;99.90;;;;;;5105671;27;19991;-79
2023/12/10 02:14:10;;;;;;;;;;;7.20;99.90;;;;;;5111815;27;19934;-79
2023/12/10 02:16:35;;;;;;;;;;;7.10;99.90;;;;;;5077443;27;19923;-78
2023/12/10 02:19:01;;;;;;;;;;;7.20;99.90;;;;;;5105459;27;20009;-79
2023/12/10 02:21:29;;;;;;;;;;;7.20;99.90;;;;;;5099111;27;19931;-79
2023/12/10 02:24:03;;;;;;;;;;;7.10;99.90;;;;;;5122871;27;19935;-78
2023/12/10 02:26:29;;;;;;;;;;;7.10;99.90;;;;;;5110409;27;19987;-78
2023/12/10 02:28:55;;;;;;;;;;;7.10;99.90;;;;;;5108735;27;19971;-78
2023/12/10 02:31:21;;;;;;;;;;;7.10;99.90;;;;;;5088391;27;19931;-78
2023/12/10 02:33:46;;;;;;;;;;;7.10;99.90;;;;;;5110717;27;20360;-78
2023/12/10 02:36:13;;;;;;;;;;;7.10;99.90;;;;;;5123622;27;20056;-78
2023/12/10 02:38:40;;;;;;;;;;;7.10;99.90;;;;;;5106325;27;19931;-79
2023/12/10 02:41:05;;;;;;;;;;;7.10;99.90;;;;;;5081892;27;19928;-78
2023/12/10 02:43:31;;;;;;;;;;;7.10;99.90;;;;;;5125802;27;19930;-77
2023/12/10 02:45:57;;;;;;;;;;;7.20;99.90;;;;;;5109286;27;19928;-78
2023/12/10 02:48:23;;;;;;;;;;;7.20;99.90;;;;;;5096183;27;19927;-78
2023/12/10 02:50:49;;;;;;;;;;;7.20;99.90;;;;;;5108576;27;19962;-78
2023/12/10 02:53:15;;;;;;;;;;;7.30;99.90;;;;;;5092616;27;19965;-77
2023/12/10 02:55:41;;;;;;;;;;;7.30;99.90;;;;;;5111150;27;20014;-77
2023/12/10 02:58:06;;;;;;;;;;;7.30;99.90;;;;;;5104799;27;19966;-77
2023/12/10 03:00:32;;;;;;;;;;;7.30;99.90;;;;;;5113573;27;19931;-78
2023/12/10 03:02:58;;;;;;;;;;;7.40;99.90;;;;;;5113070;27;19939;-77
2023/12/10 03:05:24;;;;;;;;;;;7.40;99.90;;;;;;5089169;27;21360;-76
2023/12/10 03:07:50;;;;;;;;;;;7.40;99.90;;;;;;5106512;27;19979;-77
2023/12/10 03:10:16;;;;;;;;;;;7.40;99.90;;;;;;5110812;27;19927;-77
2023/12/10 03:12:41;;;;;;;;;;;7.40;99.90;;;;;;5090494;27;19931;-78
2023/12/10 03:15:07;;;;;;;;;;;7.40;99.90;;;;;;5108348;27;19933;-77
2023/12/10 03:17:33;;;;;;;;;;;7.50;99.90;;;;;;5110644;27;19934;-77
2023/12/10 03:19:58;;;;;;;;;;;7.50;99.90;;;;;;5115645;27;20381;-77
2023/12/10 03:22:24;;;;;;;;;;;7.50;99.90;;;;;;5109637;27;20021;-77
2023/12/10 03:24:51;;;;;;;;;;;7.50;99.90;;;;;;5098635;27;20458;-77
2023/12/10 03:27:17;;;;;;;;;;;7.50;99.90;;;;;;5109212;27;19938;-77
2023/12/10 03:29:43;;;;;;;;;;;7.50;99.90;;;;;;5112613;27;19990;-79
2023/12/10 03:32:09;;;;;;;;;;;7.50;99.90;;;;;;5109684;27;19989;-77
2023/12/10 03:34:34;;;;;;;;;;;7.60;99.90;;;;;;5091531;27;19941;-78
2023/12/10 03:37:00;;;;;;;;;;;7.60;99.90;;;;;;5100334;27;20337;-78
2023/12/10 03:39:26;;;;;;;;;;;7.60;99.90;;;;;;5109743;27;20502;-78
2023/12/10 03:41:52;;;;;;;;;;;7.60;99.90;;;;;;5106268;27;19923;-77
2023/12/10 03:44:18;;;;;;;;;;;7.60;99.90;;;;;;5108406;27;19954;-78
2023/12/10 03:46:44;;;;;;;;;;;7.60;99.90;;;;;;5105962;27;20678;-77
2023/12/10 03:49:10;;;;;;;;;;;7.70;99.90;;;;;;5128511;27;19927;-77
2023/12/10 03:51:35;;;;;;;;;;;7.70;99.90;;;;;;5115011;27;19927;-77
2023/12/10 03:54:01;;;;;;;;;;;7.70;99.90;;;;;;5100078;27;19938;-77
2023/12/10 03:56:27;;;;;;;;;;;7.70;99.90;;;;;;5104006;27;20367;-78
2023/12/10 03:58:52;;;;;;;;;;;7.70;99.90;;;;;;5107145;27;19927;-78
2023/12/10 04:01:18;;;;;;;;;;;7.70;99.90;;;;;;5108246;27;19953;-78
2023/12/10 04:03:44;;;;;;;;;;;7.70;99.90;;;;;;5124215;27;19927;-77
2023/12/10 04:06:09;;;;;;;;;;;7.80;99.90;;;;;;5106907;27;19935;-78
2023/12/10 04:08:35;;;;;;;;;;;7.80;99.90;;;;;;5110170;27;19934;-77
2023/12/10 04:11:02;;;;;;;;;;;7.80;99.90;;;;;;5106150;27;19931;-77
2023/12/10 04:13:27;;;;;;;;;;;7.80;99.90;;;;;;5109407;27;20677;-77
2023/12/10 04:15:56;;;;;;;;;;;7.80;99.90;;;;;;5090681;27;20265;-76
2023/12/10 04:18:21;;;;;;;;;;;7.80;99.90;;;;;;5112968;27;19943;-77
2023/12/10 04:20:47;;;;;;;;;;;7.80;99.90;;;;;;5108833;27;19923;-76
2023/12/10 04:23:13;;;;;;;;;;;7.80;99.90;;;;;;5094935;27;19927;-75
2023/12/10 04:25:38;;;;;;;;;;;7.90;99.90;;;;;;5127985;27;19927;-77
2023/12/10 04:28:06;;;;;;;;;;;7.90;99.90;;;;;;5103258;27;19971;-77
2023/12/10 04:30:32;;;;;;;;;;;7.90;99.90;;;;;;5105214;27;19923;-76
2023/12/10 04:32:58;;;;;;;;;;;7.90;99.90;;;;;;5105753;27;19927;-77
2023/12/10 04:35:24;;;;;;;;;;;7.90;99.90;;;;;;5109038;27;19931;-77
2023/12/10 04:37:49;;;;;;;;;;;7.90;99.90;;;;;;5108301;27;19962;-78
2023/12/10 04:40:15;;;;;;;;;;;7.90;99.90;;;;;;5108821;27;20385;-78
2023/12/10 04:42:41;;;;;;;;;;;7.90;99.90;;;;;;5095111;27;19979;-77
2023/12/10 04:45:08;;;;;;;;;;;7.90;99.90;;;;;;5073189;27;19927;-77
2023/12/10 04:47:34;;;;;;;;;;;7.90;99.90;;;;;;5105284;27;19979;-78
2023/12/10 04:50:02;;;;;;;;;;;7.90;99.90;;;;;;5111765;27;19923;-78
2023/12/10 04:52:29;;;;;;;;;;;7.90;99.90;;;;;;5109604;27;20292;-78
2023/12/10 04:54:55;;;;;;;;;;;7.90;99.90;;;;;;5107238;27;19931;-78
2023/12/10 04:57:21;;;;;;;;;;;7.90;99.90;;;;;;5108430;27;20859;-78
2023/12/10 04:59:47;;;;;;;;;;;7.80;99.90;;;;;;5110480;27;19919;-78
2023/12/10 05:02:13;;;;;;;;;;;7.80;99.90;;;;;;5093526;27;20381;-77
2023/12/10 05:04:38;;;;;;;;;;;7.80;99.90;;;;;;5107576;27;19938;-77
2023/12/10 05:07:04;;;;;;;;;;;7.80;99.90;;;;;;5101116;27;19931;-78
2023/12/10 05:09:31;;;;;;;;;;;7.80;99.90;;;;;;5111075;27;19931;-78
2023/12/10 05:11:57;;;;;;;;;;;7.80;99.90;;;;;;5113815;27;19994;-78
2023/12/10 05:14:23;;;;;;;;;;;7.80;99.90;;;;;;5109658;27;20035;-78
2023/12/10 05:16:48;;;;;;;;;;;7.80;99.90;;;;;;5098474;27;20003;-77
2023/12/10 05:19:14;;;;;;;;;;;7.80;99.90;;;;;;5092611;27;20345;-77
2023/12/10 05:21:41;;;;;;;;;;;7.70;99.90;;;;;;5102480;27;19926;-77
2023/12/10 05:24:06;;;;;;;;;;;7.70;99.90;;;;;;5110956;27;19969;-77
2023/12/10 05:26:32;;;;;;;;;;;7.70;99.90;;;;;;5098749;27;20041;-77
2023/12/10 05:28:57;;;;;;;;;;;7.70;99.90;;;;;;5093470;27;19927;-77
2023/12/10 05:31:24;;;;;;;;;;;7.70;99.90;;;;;;5080243;27;20001;-77
2023/12/10 05:33:49;;;;;;;;;;;7.70;99.90;;;;;;5112008;27;19928;-77
2023/12/10 05:36:15;;;;;;;;;;;7.70;99.90;;;;;;5111989;27;21256;-78
2023/12/10 05:38:41;;;;;;;;;;;7.70;99.90;;;;;;5089509;27;19927;-78
2023/12/10 05:41:06;;;;;;;;;;;7.70;99.90;;;;;;5128201;27;20197;-78
2023/12/10 05:43:32;;;;;;;;;;;9.10;99.90;;;;;;5115624;27;20419;-77
2023/12/10 05:45:58;;;;;;;;;;;7.70;99.90;;;;;;5092618;27;19973;-77
2023/12/10 05:48:23;;;;;;;;;;;7.60;99.90;;;;;;5119248;27;19942;-78
2023/12/10 05:50:49;;;;;;;;;;;7.60;99.90;;;;;;5116850;27;20942;-77
2023/12/10 05:53:15;;;;;;;;;;;7.70;99.90;;;;;;5111905;27;19931;-79
2023/12/10 05:55:40;;;;;;;;;;;7.70;99.90;;;;;;5127680;27;19934;-78
2023/12/10 05:58:06;;;;;;;;;;;7.70;99.90;;;;;;5111556;27;19923;-76
2023/12/10 06:00:31;;;;;;;;;;;7.70;99.90;;;;;;5091965;27;19980;-78
2023/12/10 06:02:59;;;;;;;;;;;7.70;99.90;;;;;;5111900;27;20018;-78
2023/12/10 06:05:24;;;;;;;;;;;7.60;99.90;;;;;;5115452;27;19927;-77
2023/12/10 06:07:50;;;;;;;;;;;7.60;99.90;;;;;;5091420;27;19934;-78
2023/12/10 06:10:15;;;;;;;;;;;7.60;99.90;;;;;;5125481;27;19931;-78
2023/12/10 06:12:44;;;;;;;;;;;7.60;99.90;;;;;;5126808;27;19935;-78
2023/12/10 06:15:10;;;;;;;;;;;7.60;99.90;;;;;;5097390;27;19932;-78
2023/12/10 06:17:35;;;;;;;;;;;7.60;99.90;;;;;;5105195;27;19962;-77
2023/12/10 06:20:01;;;;;;;;;;;7.60;99.90;;;;;;5078793;27;20385;-79
2023/12/10 06:22:26;;;;;;;;;;;7.60;99.90;;;;;;5126883;27;19927;-79
2023/12/10 06:24:52;;;;;;;;;;;7.60;99.90;;;;;;5108760;27;19924;-78
2023/12/10 06:27:18;;;;;;;;;;;7.60;99.90;;;;;;5125338;27;20010;-78
2023/12/10 06:29:43;;;;;;;;;;;7.70;99.90;;;;;;5080824;27;20332;-78
2023/12/10 06:32:09;;;;;;;;;;;7.70;99.90;;;;;;5106545;27;20034;-78
2023/12/10 06:34:35;;;;;;;;;;;7.70;99.90;;;;;;5107862;27;20002;-78
2023/12/10 06:37:06;;;;;;;;;;;7.70;99.90;;;;;;5096443;27;20828;-77
2023/12/10 06:39:32;;;;;;;;;;;7.70;99.90;;;;;;5088729;27;19931;-78
2023/12/10 06:41:57;;;;;;;;;;;7.70;99.90;;;;;;5124378;27;20022;-78
2023/12/10 06:44:24;;;;;;;;;;;7.70;99.90;;;;;;5098369;27;19979;-77
2023/12/10 06:46:50;;;;;;;;;;;7.70;99.90;;;;;;5105908;27;20018;-79
2023/12/10 06:49:16;;;;;;;;;;;7.70;99.90;;;;;;5095240;27;20319;-78
2023/12/10 06:51:42;;;;;;;;;;;7.80;99.90;;;;;;5097529;27;19923;-78
2023/12/10 06:54:09;;;;;;;;;;;7.70;99.90;;;;;;5099115;27;19932;-78
2023/12/10 06:56:39;;;;;;;;;;;7.80;99.90;;;;;;5092285;27;20369;-78
2023/12/10 06:59:06;;;;;;;;;;;8.10;99.90;;;;;;5110063;27;20450;-78
2023/12/10 07:01:33;;;;;;;;;;;7.80;99.90;;;;;;5111885;27;19931;-78
2023/12/10 07:04:02;;;;;;;;;;;7.80;99.90;;;;;;5122358;27;20010;-79
2023/12/10 07:06:28;;;;;;;;;;;7.80;99.90;;;;;;5125639;27;19998;-79
2023/12/10 07:08:53;;;;;;;;;;;7.80;99.90;;;;;;5094469;27;20073;-78
2023/12/10 07:11:19;;;;;;;;;;;7.80;99.90;;;;;;5096843;27;20148;-79
2023/12/10 07:13:45;;;;;;;;;;;7.80;99.90;;;;;;5108367;27;19927;-78
2023/12/10 07:16:11;;;;;;;;;;;7.80;99.90;;;;;;5105269;27;19937;-78
2023/12/10 07:18:37;;;;;;;;;;;7.80;99.90;;;;;;5112725;27;20369;-78
2023/12/10 07:21:02;;;;;;;;;;;7.90;99.90;;;;;;5108643;27;20382;-78
2023/12/10 07:23:28;;;;;;;;;;;7.90;99.90;;;;;;5111050;27;20421;-78
2023/12/10 07:25:54;;;;;;;;;;;7.90;99.90;;;;;;5105976;27;20308;-79
2023/12/10 07:28:19;;;;;;;;;;;7.80;99.90;;;;;;5089526;27;20847;-78
2023/12/10 07:30:45;;;;;;;;;;;7.90;99.90;;;;;;5106448;27;20436;-78
2023/12/10 07:33:11;;;;;;;;;;;7.80;99.90;;;;;;5094903;27;19931;-78
2023/12/10 07:35:36;;;;;;;;;;;7.80;99.90;;;;;;5093190;27;19924;-78
2023/12/10 07:38:02;;;;;;;;;;;7.80;99.90;;;;;;5113505;27;21431;-79
2023/12/10 07:40:28;;;;;;;;;;;7.80;99.90;;;;;;5098396;27;19919;-78
2023/12/10 07:42:54;;;;;;;;;;;7.80;99.90;;;;;;5109830;27;20416;-78
2023/12/10 07:45:20;;;;;;;;;;;7.80;99.90;;;;;;5089153;27;20497;-78
2023/12/10 07:47:46;;;;;;;;;;;7.70;99.90;;;;;;5108365;27;19927;-78
2023/12/10 07:50:11;;;;;;;;;;;7.70;99.90;;;;;;5110292;27;19924;-78
2023/12/10 07:52:37;;;;;;;;;;;7.70;99.90;;;;;;5109017;27;19966;-78
2023/12/10 07:55:03;;;;;;;;;;;7.70;99.90;;;;;;5108277;27;20374;-78
2023/12/10 07:57:29;;;;;;;;;;;7.80;99.90;;;;;;5110131;27;19927;-78
2023/12/10 07:59:54;;;;;;;;;;;7.80;99.90;;;;;;5105159;27;19931;-78
2023/12/10 08:02:21;;;;;;;;;;;7.80;99.90;;;;;;5104964;27;20713;-79
2023/12/10 08:04:46;;;;;;;;;;;7.80;99.90;;;;;;5108988;27;19984;-79
2023/12/10 08:07:12;;;;;;;;;;;7.90;99.90;;;;;;5107624;27;20286;-78
2023/12/10 08:09:38;;;;;;;;;;;7.90;99.90;;;;;;5102971;27;19923;-78
2023/12/10 08:12:04;;;;;;;;;;;7.90;99.90;;;;;;5110220;27;19935;-79
2023/12/10 08:14:29;;;;;;;;;;;7.90;99.90;;;;;;5105085;27;19927;-78
2023/12/10 08:16:56;;;;;;;;;;;7.90;99.90;;;;;;5106780;27;19939;-78
2023/12/10 08:19:21;;;;;;;;;;;7.90;99.90;;;;;;5096367;27;19931;-77
2023/12/10 08:21:47;;;;;;;;;;;7.90;99.90;;;;;;5112203;27;19930;-79
2023/12/10 08:24:13;;;;;;;;;;;8.00;99.90;;;;;;5097554;27;19926;-78
2023/12/10 08:26:38;;;;;;;;;;;7.90;99.90;;;;;;5107506;27;20289;-78
2023/12/10 08:29:04;;;;;;;;;;;8.00;99.90;;;;;;5114821;27;19933;-79
2023/12/10 08:31:29;;;;;;;;;;;7.90;99.90;;;;;;5113332;27;19958;-78
2023/12/10 08:33:55;;;;;;;;;;;7.90;99.90;;;;;;5129881;27;20295;-78
2023/12/10 08:36:21;;;;;;;;;;;7.90;99.90;;;;;;5115040;27;20388;-78
2023/12/10 08:38:47;;;;;;;;;;;7.80;99.90;;;;;;5100371;27;19943;-79
2023/12/10 08:41:12;;;;;;;;;;;7.80;99.90;;;;;;5115059;27;19927;-78
2023/12/10 08:43:38;;;;;;;;;;;7.80;99.90;;;;;;5096656;27;19927;-78
2023/12/10 08:46:04;;;;;;;;;;;7.90;99.90;;;;;;5108693;27;19931;-79
2023/12/10 08:48:30;;;;;;;;;;;7.90;99.90;;;;;;5108527;27;20277;-78
2023/12/10 08:50:56;;;;;;;;;;;7.90;99.90;;;;;;5110319;27;19953;-78
2023/12/10 08:53:22;;;;;;;;;;;7.90;99.90;;;;;;5107677;27;20166;-78
2023/12/10 08:55:48;;;;;;;;;;;8.00;99.90;;;;;;5099837;27;20000;-78
2023/12/10 08:58:14;;;;;;;;;;;8.10;99.90;;;;;;5122409;27;19927;-78
2023/12/10 09:00:40;;;;;;;;;;;8.00;99.90;;;;;;5107312;27;20414;-78
2023/12/10 09:03:05;;;;;;;;;;;8.10;99.90;;;;;;5116383;27;19975;-78
2023/12/10 09:05:31;;;;;;;;;;;8.00;99.90;;;;;;5116355;27;19930;-77
2023/12/10 09:07:57;;;;;;;;;;;8.10;99.90;;;;;;5104771;27;20276;-78
2023/12/10 09:10:23;;;;;;;;;;;8.10;99.90;;;;;;5117568;27;20356;-78
2023/12/10 09:12:48;;;;;;;;;;;8.10;99.90;;;;;;5079897;27;20480;-78
2023/12/10 09:15:14;;;;;;;;;;;8.10;99.90;;;;;;5105233;27;20388;-78
2023/12/10 09:17:40;;;;;;;;;;;8.10;99.90;;;;;;5113300;27;19927;-78
2023/12/10 09:20:06;;;;;;;;;;;8.10;99.90;;;;;;5113844;27;20284;-79
2023/12/10 09:22:32;;;;;;;;;;;8.10;99.90;;;;;;5100867;27;19938;-78
2023/12/10 09:24:58;;;;;;;;;;;8.10;99.90;;;;;;5113954;27;19927;-78
2023/12/10 09:27:23;;;;;;;;;;;8.10;99.90;;;;;;5121079;27;19949;-78
2023/12/10 09:29:49;;;;;;;;;;;8.00;99.90;;;;;;5104467;27;19927;-78
2023/12/10 09:32:16;;;;;;;;;;;8.00;99.90;;;;;;5111949;27;19948;-78
2023/12/10 09:34:43;;;;;;;;;;;8.00;99.90;;;;;;5094485;27;19924;-78
2023/12/10 09:37:11;;;;;;;;;;;7.90;99.90;;;;;;5100130;27;20013;-78
2023/12/10 09:39:37;;;;;;;;;;;7.90;99.90;;;;;;5101685;27;20437;-78
2023/12/10 09:42:03;;;;;;;;;;;7.90;99.90;;;;;;5118466;27;19932;-78
2023/12/10 09:44:28;;;;;;;;;;;7.90;99.90;;;;;;5100524;27;19975;-78
2023/12/10 09:46:54;;;;;;;;;;;7.90;99.90;;;;;;5121627;27;19965;-78
2023/12/10 09:49:21;;;;;;;;;;;7.90;99.90;;;;;;5121367;27;19971;-78
2023/12/10 09:51:46;;;;;;;;;;;7.90;99.90;;;;;;5118746;27;19924;-78
2023/12/10 09:54:12;;;;;;;;;;;8.00;99.90;;;;;;5098343;27;19930;-78
2023/12/10 09:56:39;;;;;;;;;;;8.00;99.90;;;;;;5114424;27;19927;-78
2023/12/10 09:59:05;;;;;;;;;;;8.00;99.90;;;;;;5104812;27;19927;-78
2023/12/10 10:01:31;;;;;;;;;;;8.00;99.90;;;;;;5103106;27;19919;-76
2023/12/10 10:03:57;;;;;;;;;;;8.00;99.90;;;;;;5099177;27;19928;-78
2023/12/10 10:06:22;;;;;;;;;;;8.00;99.90;;;;;;5095551;27;20014;-78
2023/12/10 10:08:48;;;;;;;;;;;8.10;99.90;;;;;;5099581;27;19927;-77
2023/12/10 10:11:14;;;;;;;;;;;8.20;99.90;;;;;;5115776;27;19931;-78
2023/12/10 10:13:49;;;;;;;;;;;8.30;99.90;;;;;;5104186;27;19919;-78
2023/12/10 10:16:14;;;;;;;;;;;8.30;99.90;;;;;;5114821;27;20676;-78
2023/12/10 10:18:41;;;;;;;;;;;8.30;99.90;;;;;;5119214;27;19923;-77
2023/12/10 10:21:07;;;;;;;;;;;8.20;99.90;;;;;;5102960;27;19933;-77
2023/12/10 10:23:32;;;;;;;;;;;8.20;99.90;;;;;;5120203;27;20421;-78
2023/12/10 10:26:00;;;;;;;;;;;8.20;99.90;;;;;;5100155;27;20126;-78
2023/12/10 10:28:27;;;;;;;;;;;8.20;99.90;;;;;;5098451;27;19928;-78
2023/12/10 10:30:53;;;;;;;;;;;8.20;99.90;;;;;;5118540;27;20322;-78
2023/12/10 10:33:20;;;;;;;;;;;8.20;99.90;;;;;;5119213;27;19927;-78
2023/12/10 10:35:46;;;;;;;;;;;8.10;99.90;;;;;;5106952;27;19971;-77
2023/12/10 10:38:12;;;;;;;;;;;8.10;99.90;;;;;;5118327;27;19935;-78
2023/12/10 10:40:39;;;;;;;;;;;8.10;99.90;;;;;;5112435;27;20022;-78
2023/12/10 10:43:05;;;;;;;;;;;6.80;99.90;;;;;;5091086;27;19931;-78
2023/12/10 10:45:33;;;;;;;;;;;8.00;99.90;;;;;;5120465;27;19934;-77
2023/12/10 10:47:59;;;;;;;;;;;8.00;99.90;;;;;;5119909;27;19938;-77
2023/12/10 10:50:25;;;;;;;;;;;8.00;99.90;;;;;;5101270;27;20285;-78
2023/12/10 10:52:52;;;;;;;;;;;8.00;99.90;;;;;;5109731;27;19924;-78
2023/12/10 10:55:18;;;;;;;;;;;8.00;99.90;;;;;;5112186;27;19975;-78
2023/12/10 10:57:44;;;;;;;;;;;8.10;99.90;;;;;;5119568;27;19959;-78
2023/12/10 11:00:30;;;;;;;;;;;9.30;99.90;;;;;;5112505;27;20280;-78
2023/12/10 11:03:01;;;;;;;;;;;8.10;99.90;;;;;;5095788;27;19927;-78
2023/12/10 11:05:31;;;;;;;;;;;8.10;99.90;;;;;;5118736;27;20425;-78
2023/12/10 11:07:57;;;;;;;;;;;8.20;99.90;;;;;;5134112;27;19934;-78
2023/12/10 11:10:24;;;;;;;;;;;8.20;99.90;;;;;;5126366;27;19923;-78
2023/12/10 11:12:51;;;;;;;;;;;8.20;99.90;;;;;;5109907;27;19935;-78
2023/12/10 11:15:16;;;;;;;;;;;8.20;99.90;;;;;;5102967;27;19927;-78
2023/12/10 11:17:54;;;;;;;;;;;8.20;99.90;;;;;;5114279;27;19931;-77
2023/12/10 11:20:33;;;;;;;;;;;8.10;99.90;;;;;;5111767;27;20825;-78
2023/12/10 11:23:03;;;;;;;;;;;8.10;99.90;;;;;;5117562;27;20038;-77
2023/12/10 11:25:29;;;;;;;;;;;8.00;99.90;;;;;;5104573;27;19980;-77
2023/12/10 11:27:59;;;;;;;;;;;8.00;99.90;;;;;;5111422;27;20334;-77
2023/12/10 11:30:24;;;;;;;;;;;8.00;99.90;;;;;;5102252;27;19980;-78
2023/12/10 11:32:50;;;;;;;;;;;8.00;99.90;;;;;;5118061;27;19931;-77
2023/12/10 11:35:16;;;;;;;;;;;8.00;99.90;;;;;;5116260;27;20015;-77
2023/12/10 11:37:43;;;;;;;;;;;8.00;99.90;;;;;;5119367;27;19933;-77
2023/12/10 11:40:09;;;;;;;;;;;8.00;99.90;;;;;;5118378;27;19919;-78
2023/12/10 11:42:35;;;;;;;;;;;8.00;99.90;;;;;;5119218;27;19974;-77
2023/12/10 11:45:04;;;;;;;;;;;8.00;99.90;;;;;;5097735;27;20816;-78
2023/12/10 11:47:29;;;;;;;;;;;8.10;99.90;;;;;;5110258;27;19927;-78
2023/12/10 11:49:55;;;;;;;;;;;8.10;99.90;;;;;;5109590;27;19927;-77
2023/12/10 11:52:21;;;;;;;;;;;8.10;99.90;;;;;;5105640;27;19927;-77
2023/12/10 11:54:46;;;;;;;;;;;8.10;99.90;;;;;;5108808;27;19927;-78
2023/12/10 11:57:12;;;;;;;;;;;8.20;99.90;;;;;;5097056;27;20734;-77
2023/12/10 11:59:38;;;;;;;;;;;8.20;99.90;;;;;;5114642;27;20388;-77
2023/12/10 12:02:05;;;;;;;;;;;8.10;99.90;;;;;;5096605;27;19927;-77
2023/12/10 12:04:34;;;;;;;;;;;8.10;99.90;;;;;;5117231;27;20300;-77
2023/12/10 12:07:00;;;;;;;;;;;8.10;99.90;;;;;;5114682;27;19970;-77
2023/12/10 12:09:25;;;;;;;;;;;8.10;99.90;;;;;;5114152;27;19974;-77
2023/12/10 12:11:51;;;;;;;;;;;8.10;99.90;;;;;;5100792;27;20595;-77
2023/12/10 12:14:18;;;;;;;;;;;8.10;99.90;;;;;;5099799;27;19933;-77
2023/12/10 12:16:48;;;;;;;;;;;8.10;99.90;;;;;;5111355;27;20337;-77
2023/12/10 12:19:29;;;;;;;;;;;8.10;99.90;;;;;;5103373;27;19932;-78
2023/12/10 12:21:58;;;;;;;;;;;8.10;99.90;;;;;;5109227;27;19927;-77
2023/12/10 12:24:23;;;;;;;;;;;8.10;99.90;;;;;;5120549;27;19934;-77
2023/12/10 12:26:50;;;;;;;;;;;8.10;99.90;;;;;;5117750;27;19928;-78
2023/12/10 12:29:15;;;;;;;;;;;8.10;99.90;;;;;;5113473;27;20285;-77
2023/12/10 12:31:41;;;;;;;;;;;8.20;99.90;;;;;;5101922;27;19927;-77
2023/12/10 12:34:07;;;;;;;;;;;8.20;99.90;;;;;;5115363;27;20492;-78
2023/12/10 12:36:32;;;;;;;;;;;8.20;99.90;;;;;;5101572;27;19927;-77
2023/12/10 12:38:58;;;;;;;;;;;8.20;99.90;;;;;;5133099;27;20791;-78
2023/12/10 12:41:23;;;;;;;;;;;8.20;99.90;;;;;;5110819;27;19927;-77
2023/12/10 12:43:49;;;;;;;;;;;8.20;99.90;;;;;;5102181;27;19937;-76
2023/12/10 12:46:16;;;;;;;;;;;8.20;99.90;;;;;;5116908;27;19927;-78
2023/12/10 12:48:46;;;;;;;;;;;8.10;99.90;;;;;;5120942;27;19931;-77
2023/12/10 12:51:12;;;;;;;;;;;8.20;99.90;;;;;;5108393;27;19934;-77
2023/12/10 12:53:37;;;;;;;;;;;8.10;99.90;;;;;;5105844;27;19928;-78
2023/12/10 12:56:03;;;;;;;;;;;8.10;99.90;;;;;;5117728;27;20294;-78
2023/12/10 12:58:30;;;;;;;;;;;8.10;99.90;;;;;;5105132;27;20504;-77
2023/12/10 13:00:56;;;;;;;;;;;8.10;99.90;;;;;;5086886;27;19967;-77
2023/12/10 13:03:21;;;;;;;;;;;8.00;99.90;;;;;;5109217;27;19971;-77
2023/12/10 13:05:47;;;;;;;;;;;8.00;99.90;;;;;;5098563;27;19927;-78
2023/12/10 13:08:13;;;;;;;;;;;8.00;99.90;;;;;;5092788;27;20620;-77
2023/12/10 13:10:38;;;;;;;;;;;7.90;99.90;;;;;;5113854;27;20435;-78
2023/12/10 13:13:04;;;;;;;;;;;7.90;99.90;;;;;;5112368;27;19961;-77
2023/12/10 13:15:30;;;;;;;;;;;7.90;99.90;;;;;;5117232;27;19923;-78
2023/12/10 13:17:56;;;;;;;;;;;7.90;99.90;;;;;;5112262;27;19974;-77
2023/12/10 13:20:22;;;;;;;;;;;7.90;99.90;;;;;;5089953;27;19927;-78
2023/12/10 13:22:48;;;;;;;;;;;8.00;99.90;;;;;;5118726;27;20730;-77
2023/12/10 13:25:14;;;;;;;;;;;8.00;99.90;;;;;;5117746;27;19931;-77
2023/12/10 13:27:40;;;;;;;;;;;8.00;99.90;;;;;;5121753;27;19928;-77
2023/12/10 13:30:06;;;;;;;;;;;8.00;99.90;;;;;;5115178;27;19927;-77
2023/12/10 13:32:31;;;;;;;;;;;8.00;99.90;;;;;;5102823;27;19928;-78
2023/12/10 13:34:58;;;;;;;;;;;8.00;99.90;;;;;;5121251;27;19930;-78
2023/12/10 13:37:26;;;;;;;;;;;8.00;99.90;;;;;;5136090;27;20366;-77
2023/12/10 13:39:52;;;;;;;;;;;7.90;99.90;;;;;;5113138;27;20011;-77
2023/12/10 13:42:19;;;;;;;;;;;7.90;99.90;;;;;;5113253;27;19967;-78
2023/12/10 13:44:45;;;;;;;;;;;7.90;99.90;;;;;;5113779;27;19931;-77
2023/12/10 13:47:12;;;;;;;;;;;7.80;99.90;;;;;;5113325;27;20000;-78
2023/12/10 13:49:38;;;;;;;;;;;7.80;99.90;;;;;;5125639;27;19923;-77
2023/12/10 13:52:04;;;;;;;;;;;7.80;99.90;;;;;;5091872;27;19934;-78
2023/12/10 13:54:29;;;;;;;;;;;7.80;99.90;;;;;;5115723;27;19927;-77
2023/12/10 13:56:55;;;;;;;;;;;7.80;99.90;;;;;;5095743;27;19923;-77
2023/12/10 13:59:21;;;;;;;;;;;7.70;99.90;;;;;;5098642;27;19978;-77
2023/12/10 14:01:47;;;;;;;;;;;7.70;99.90;;;;;;5117563;27;19923;-76
2023/12/10 14:04:13;;;;;;;;;;;7.60;99.90;;;;;;5112300;27;20492;-76
2023/12/10 14:06:38;;;;;;;;;;;7.60;99.90;;;;;;5112799;27;19936;-76
2023/12/10 14:09:06;;;;;;;;;;;7.60;99.90;;;;;;5102619;27;20600;-76
2023/12/10 14:11:32;;;;;;;;;;;7.60;99.90;;;;;;5111766;27;20340;-76
2023/12/10 14:13:58;;;;;;;;;;;7.60;99.90;;;;;;5093786;27;19923;-76
2023/12/10 14:16:26;;;;;;;;;;;7.60;99.90;;;;;;5110638;27;19924;-76
2023/12/10 14:18:52;;;;;;;;;;;7.60;99.90;;;;;;5112089;27;19942;-75
2023/12/10 14:21:18;;;;;;;;;;;7.60;99.90;;;;;;5091194;27;20720;-76
2023/12/10 14:23:43;;;;;;;;;;;8.20;99.90;;;;;;5110095;27;20017;-76
2023/12/10 14:26:09;;;;;;;;;;;7.50;99.90;;;;;;5111588;27;20484;-75